Time,TemperatureF,DewpointF,PressureIn,WindDirection,WindDirectionDegrees,WindSpeedMPH,WindSpeedGustMPH,Humidity,HourlyPrecipIn,Conditions,Clouds,dailyrainin,SolarRadiationWatts/m^2,SoftwareType,DateUTC
2013-03-27 00:10:00,37.7,24.6,23.16,North,360,0.0,0.0,59,0.00,,,0.00,0,Wunderground v.1.15,2013-03-27 04:10:00,
2013-03-27 00:20:00,37.7,24.6,23.16,North,360,0.0,0.0,59,0.00,,,0.00,0,Wunderground v.1.15,2013-03-27 04:20:00,
2013-03-27 00:40:00,37.8,24.3,23.16,North,360,0.0,0.0,58,0.00,,,0.00,0,Wunderground v.1.15,2013-03-27 04:40:00,
2013-03-27 00:50:00,37.7,23.8,23.15,North,360,0.0,0.0,57,0.00,,,0.00,0,Wunderground v.1.15,2013-03-27 04:50:00,
2013-03-27 01:10:00,36.7,25.3,23.16,North,360,0.0,0.0,63,0.00,,,0.00,0,Wunderground v.1.15,2013-03-27 05:10:00,
2013-03-27 01:20:00,35.7,25.1,23.16,North,360,0.0,0.0,65,0.00,,,0.00,0,Wunderground v.1.15,2013-03-27 05:20:00,
2013-03-27 01:31:00,34.6,24.4,23.16,North,360,0.0,0.0,66,0.00,,,0.00,0,Wunderground v.1.15,2013-03-27 05:31:00,
2013-03-27 01:40:00,34.2,24.7,23.16,North,360,0.0,0.0,68,0.00,,,0.00,0,Wunderground v.1.15,2013-03-27 05:40:00,
2013-03-27 01:50:00,33.6,24.2,23.16,North,360,0.0,0.0,68,0.00,,,0.00,0,Wunderground v.1.15,2013-03-27 05:50:00,
2013-03-27 02:01:00,33.0,23.9,23.16,North,360,0.0,0.0,69,0.00,,,0.00,0,Wunderground v.1.15,2013-03-27 06:01:00,
2013-03-27 02:10:00,32.6,24.6,23.16,North,360,0.0,0.0,72,0.00,,,0.00,0,Wunderground v.1.15,2013-03-27 06:10:00,
2013-03-27 02:20:00,32.1,23.8,23.16,North,360,0.0,0.0,71,0.00,,,0.00,0,Wunderground v.1.15,2013-03-27 06:20:00,
2013-03-27 02:40:00,32.3,23.6,23.16,NNE,16,0.0,0.0,70,0.00,,,0.00,0,Wunderground v.1.15,2013-03-27 06:40:00,
2013-03-27 02:50:00,32.1,23.4,23.16,NNE,16,0.0,0.0,70,0.00,,,0.00,0,Wunderground v.1.15,2013-03-27 06:50:00,
2013-03-27 03:10:00,31.1,23.5,23.16,NNE,16,0.0,0.0,73,0.00,,,0.00,0,Wunderground v.1.15,2013-03-27 07:10:00,
2013-03-27 03:20:00,30.5,23.5,23.16,NNE,16,0.0,0.0,75,0.00,,,0.00,0,Wunderground v.1.15,2013-03-27 07:20:00,
2013-03-27 03:40:00,29.6,23.3,23.16,NNE,16,0.0,0.0,77,0.00,,,0.00,0,Wunderground v.1.15,2013-03-27 07:40:00,
2013-03-27 03:50:00,29.2,23.2,23.16,NNE,16,0.0,0.0,78,0.00,,,0.00,0,Wunderground v.1.15,2013-03-27 07:50:00,
2013-03-27 04:01:00,28.7,23.0,23.16,NNE,16,0.0,0.0,79,0.00,,,0.00,0,Wunderground v.1.15,2013-03-27 08:01:00,
2013-03-27 04:10:00,28.6,23.2,23.16,NNE,16,0.0,0.0,80,0.00,,,0.00,0,Wunderground v.1.15,2013-03-27 08:10:00,
2013-03-27 04:20:00,28.4,23.0,23.16,NNE,16,0.0,0.0,80,0.00,,,0.00,0,Wunderground v.1.15,2013-03-27 08:20:00,
2013-03-27 04:40:00,28.3,22.9,23.16,NNE,16,0.0,0.0,80,0.00,,,0.00,0,Wunderground v.1.15,2013-03-27 08:40:00,
2013-03-27 04:50:00,28.0,22.9,23.16,NNE,16,0.0,0.0,81,0.00,,,0.00,0,Wunderground v.1.15,2013-03-27 08:50:00,
2013-03-27 05:10:00,27.2,22.4,23.16,NNE,16,0.0,0.0,82,0.00,,,0.00,0,Wunderground v.1.15,2013-03-27 09:10:00,
2013-03-27 05:20:00,27.1,22.6,23.16,NNE,16,0.0,0.0,83,0.00,,,0.00,0,Wunderground v.1.15,2013-03-27 09:20:00,
2013-03-27 05:40:00,27.2,23.0,23.16,NNE,16,0.0,0.0,84,0.00,,,0.00,0,Wunderground v.1.15,2013-03-27 09:40:00,
2013-03-27 05:50:00,26.9,22.7,23.16,NNE,16,0.0,0.0,84,0.00,,,0.00,0,Wunderground v.1.15,2013-03-27 09:50:00,
2013-03-27 06:10:00,26.3,22.1,23.16,NNE,16,0.0,0.0,84,0.00,,,0.00,0,Wunderground v.1.15,2013-03-27 10:10:00,
2013-03-27 06:20:00,26.3,22.1,23.16,NNE,16,0.0,0.0,84,0.00,,,0.00,0,Wunderground v.1.15,2013-03-27 10:20:00,
2013-03-27 06:40:00,25.7,21.8,23.16,NNE,16,0.0,0.0,85,0.00,,,0.00,0,Wunderground v.1.15,2013-03-27 10:40:00,
2013-03-27 06:50:00,26.0,22.1,23.16,NNE,16,0.0,0.0,85,0.00,,,0.00,0,Wunderground v.1.15,2013-03-27 10:50:00,
2013-03-27 07:10:00,26.8,22.9,23.17,NNE,16,0.0,0.0,85,0.00,,,0.00,12,Wunderground v.1.15,2013-03-27 11:10:00,
2013-03-27 07:20:00,27.2,23.6,23.17,NNE,16,0.0,0.0,86,0.00,,,0.00,28,Wunderground v.1.15,2013-03-27 11:20:00,
2013-03-27 07:31:00,28.0,24.1,23.17,NNE,16,0.0,0.0,85,0.00,,,0.00,42,Wunderground v.1.15,2013-03-27 11:31:00,
2013-03-27 07:40:00,28.4,24.5,23.17,NNE,16,0.0,0.0,85,0.00,,,0.00,56,Wunderground v.1.15,2013-03-27 11:40:00,
2013-03-27 07:50:00,29.6,25.4,23.17,NNE,14,0.0,0.0,84,0.00,,,0.00,70,Wunderground v.1.15,2013-03-27 11:50:00,
2013-03-27 08:01:00,30.6,25.8,23.17,NNE,14,0.0,0.0,82,0.00,,,0.00,91,Wunderground v.1.15,2013-03-27 12:01:00,
2013-03-27 08:10:00,31.4,26.2,23.17,NNE,14,0.0,0.0,81,0.00,,,0.00,105,Wunderground v.1.15,2013-03-27 12:10:00,
2013-03-27 08:20:00,32.4,26.3,23.17,NNE,14,0.0,0.0,78,0.00,,,0.00,128,Wunderground v.1.15,2013-03-27 12:20:00,
2013-03-27 08:40:00,34.0,25.9,23.17,NNE,14,0.0,0.0,72,0.00,,,0.00,169,Wunderground v.1.15,2013-03-27 12:40:00,
2013-03-27 08:50:00,34.9,26.1,23.17,NNE,14,0.0,1.0,70,0.00,,,0.00,214,Wunderground v.1.15,2013-03-27 12:50:00,
2013-03-27 09:10:00,36.5,26.6,23.17,North,11,1.0,1.0,67,0.00,,,0.00,267,Wunderground v.1.15,2013-03-27 13:10:00,
2013-03-27 09:20:00,37.5,26.8,23.17,North,11,0.0,0.0,65,0.00,,,0.00,301,Wunderground v.1.15,2013-03-27 13:20:00,
2013-03-27 09:31:00,38.8,27.7,23.17,North,11,0.0,0.0,64,0.00,,,0.00,318,Wunderground v.1.15,2013-03-27 13:31:00,
2013-03-27 09:40:00,39.0,27.5,23.17,NNE,14,0.0,0.0,63,0.00,,,0.00,323,Wunderground v.1.15,2013-03-27 13:40:00,
2013-03-27 09:50:00,39.1,27.6,23.17,NNE,24,0.0,0.0,63,0.00,,,0.00,359,Wunderground v.1.15,2013-03-27 13:50:00,
2013-03-27 10:10:00,40.5,27.3,23.17,NNE,31,0.0,1.0,59,0.00,,,0.00,424,Wunderground v.1.15,2013-03-27 14:10:00,
2013-03-27 10:20:00,40.8,26.7,23.17,NNE,23,1.0,5.0,57,0.00,,,0.00,478,Wunderground v.1.15,2013-03-27 14:20:00,
2013-03-27 10:40:00,41.0,27.3,23.17,ENE,69,1.0,4.0,58,0.00,,,0.00,504,Wunderground v.1.15,2013-03-27 14:40:00,
2013-03-27 10:50:00,41.1,27.4,23.17,NNE,24,2.0,2.0,58,0.00,,,0.00,642,Wunderground v.1.15,2013-03-27 14:50:00,
2013-03-27 11:10:00,41.8,25.9,23.17,ENE,66,2.0,5.0,53,0.00,,,0.00,694,Wunderground v.1.15,2013-03-27 15:10:00,
2013-03-27 11:20:00,41.5,25.6,23.17,ENE,73,3.0,5.0,53,0.00,,,0.00,635,Wunderground v.1.15,2013-03-27 15:20:00,
2013-03-27 11:40:00,42.2,25.8,23.17,ENE,75,1.0,3.0,52,0.00,,,0.00,689,Wunderground v.1.15,2013-03-27 15:40:00,
2013-03-27 11:50:00,42.4,25.5,23.17,ENE,74,1.0,2.0,51,0.00,,,0.00,677,Wunderground v.1.15,2013-03-27 15:50:00,
2013-03-27 12:10:00,42.7,26.3,23.17,ENE,70,2.0,2.0,52,0.00,,,0.00,659,Wunderground v.1.15,2013-03-27 16:10:00,
2013-03-27 12:20:00,42.5,26.1,23.17,ENE,67,2.0,4.0,52,0.00,,,0.00,613,Wunderground v.1.15,2013-03-27 16:20:00,
2013-03-27 12:40:00,43.1,25.7,23.17,ENE,70,2.0,2.0,50,0.00,,,0.00,606,Wunderground v.1.15,2013-03-27 16:40:00,
2013-03-27 12:50:00,43.1,25.7,23.17,East,84,1.0,1.0,50,0.00,,,0.00,497,Wunderground v.1.15,2013-03-27 16:50:00,
2013-03-27 13:10:00,44.4,26.4,23.17,East,86,0.0,1.0,49,0.00,,,0.00,642,Wunderground v.1.15,2013-03-27 17:10:00,
2013-03-27 13:20:00,45.4,26.3,23.17,East,86,0.0,0.0,47,0.00,,,0.00,529,Wunderground v.1.15,2013-03-27 17:20:00,
2013-03-27 13:40:00,46.0,25.8,23.17,SE,131,1.0,4.0,45,0.00,,,0.00,471,Wunderground v.1.15,2013-03-27 17:40:00,
2013-03-27 13:50:00,46.0,25.8,23.17,SE,131,1.0,1.0,45,0.00,,,0.00,550,Wunderground v.1.15,2013-03-27 17:50:00,
2013-03-27 14:10:00,46.4,25.6,23.17,SSW,198,1.0,1.0,44,0.00,,,0.00,693,Wunderground v.1.15,2013-03-27 18:10:00,
2013-03-27 14:20:00,45.9,25.7,23.17,SSW,194,2.0,2.0,45,0.00,,,0.00,650,Wunderground v.1.15,2013-03-27 18:20:00,
2013-03-27 14:40:00,46.4,25.6,23.17,WSW,256,2.0,2.0,44,0.00,,,0.00,619,Wunderground v.1.15,2013-03-27 18:40:00,
2013-03-27 14:50:00,46.6,25.8,23.17,WNW,296,3.0,6.0,44,0.00,,,0.00,434,Wunderground v.1.15,2013-03-27 18:50:00,
2013-03-27 15:10:00,47.8,25.8,23.17,WSW,238,1.0,1.0,42,0.00,,,0.00,490,Wunderground v.1.15,2013-03-27 19:10:00,
2013-03-27 15:20:00,47.0,25.6,23.17,West,281,2.0,4.0,43,0.00,,,0.00,439,Wunderground v.1.15,2013-03-27 19:20:00,
2013-03-27 15:40:00,46.3,26.6,23.17,NW,307,3.0,5.0,46,0.00,,,0.00,441,Wunderground v.1.15,2013-03-27 19:40:00,
2013-03-27 15:50:00,46.0,26.9,23.17,SSW,207,3.0,3.0,47,0.00,,,0.00,339,Wunderground v.1.15,2013-03-27 19:50:00,
2013-03-27 16:10:00,45.4,27.3,23.17,SW,221,3.0,4.0,49,0.00,,,0.00,330,Wunderground v.1.15,2013-03-27 20:10:00,
2013-03-27 16:20:00,45.4,27.3,23.17,SW,229,2.0,2.0,49,0.00,,,0.00,309,Wunderground v.1.15,2013-03-27 20:20:00,
2013-03-27 16:40:00,45.0,27.0,23.17,SSW,202,3.0,3.0,49,0.00,,,0.00,225,Wunderground v.1.15,2013-03-27 20:40:00,
2013-03-27 16:50:00,44.8,26.8,23.17,SSW,198,2.0,2.0,49,0.00,,,0.00,221,Wunderground v.1.15,2013-03-27 20:50:00,
2013-03-27 17:01:00,45.1,27.1,23.17,SSW,202,1.0,2.0,49,0.00,,,0.00,220,Wunderground v.1.15,2013-03-27 21:01:00,
2013-03-27 17:10:00,45.3,27.2,23.17,SSW,205,1.0,1.0,49,0.00,,,0.00,218,Wunderground v.1.15,2013-03-27 21:10:00,
2013-03-27 17:20:00,45.3,27.2,23.18,SW,225,1.0,1.0,49,0.00,,,0.00,188,Wunderground v.1.15,2013-03-27 21:20:00,
2013-03-27 17:31:00,45.1,26.6,23.18,WSW,241,1.0,1.0,48,0.00,,,0.00,160,Wunderground v.1.15,2013-03-27 21:31:00,
2013-03-27 17:40:00,45.0,26.5,23.18,WSW,240,1.0,1.0,48,0.00,,,0.00,134,Wunderground v.1.15,2013-03-27 21:40:00,
2013-03-27 17:50:00,44.8,26.8,23.18,WSW,238,0.0,4.0,49,0.00,,,0.00,102,Wunderground v.1.15,2013-03-27 21:50:00,
2013-03-27 18:10:00,44.5,26.5,23.18,SW,236,1.0,2.0,49,0.00,,,0.00,63,Wunderground v.1.15,2013-03-27 22:10:00,
2013-03-27 18:20:00,44.1,26.6,23.18,SW,227,1.0,1.0,50,0.00,,,0.00,47,Wunderground v.1.15,2013-03-27 22:20:00,
2013-03-27 18:40:00,44.1,27.1,23.18,SW,227,0.0,0.0,51,0.00,,,0.00,33,Wunderground v.1.15,2013-03-27 22:40:00,
2013-03-27 18:50:00,44.0,27.0,23.18,SW,227,0.0,0.0,51,0.00,,,0.00,23,Wunderground v.1.15,2013-03-27 22:50:00,
2013-03-27 19:10:00,43.2,26.7,23.18,SW,227,0.0,0.0,52,0.00,,,0.00,7,Wunderground v.1.15,2013-03-27 23:10:00,
2013-03-27 19:20:00,42.1,27.1,23.18,SW,227,0.0,0.0,55,0.00,,,0.00,0,Wunderground v.1.15,2013-03-27 23:20:00,
2013-03-27 19:40:00,40.8,27.6,23.18,SW,227,0.0,0.0,59,0.00,,,0.00,0,Wunderground v.1.15,2013-03-27 23:40:00,
2013-03-27 19:50:00,40.2,27.8,23.19,SW,229,0.0,0.0,61,0.00,,,0.00,0,Wunderground v.1.15,2013-03-27 23:50:00,
2013-03-27 20:10:00,39.1,27.9,23.19,SW,229,0.0,0.0,64,0.00,,,0.00,0,Wunderground v.1.15,2013-03-28 00:10:00,
2013-03-27 20:20:00,38.8,27.7,23.19,SW,229,0.0,0.0,64,0.00,,,0.00,0,Wunderground v.1.15,2013-03-28 00:20:00,
2013-03-27 20:40:00,38.7,27.6,23.19,SW,229,0.0,0.0,64,0.00,,,0.00,0,Wunderground v.1.15,2013-03-28 00:40:00,
2013-03-27 20:50:00,38.4,28.4,23.19,SW,229,0.0,0.0,67,0.00,,,0.00,0,Wunderground v.1.15,2013-03-28 00:50:00,
2013-03-27 21:01:00,38.2,30.0,23.19,SW,229,0.0,0.0,72,0.00,,,0.00,0,Wunderground v.1.15,2013-03-28 01:01:00,
2013-03-27 21:10:00,38.8,31.2,23.19,SW,229,0.0,0.0,74,0.00,,,0.00,0,Wunderground v.1.15,2013-03-28 01:10:00,
2013-03-27 21:20:00,39.1,31.8,23.19,SW,229,0.0,0.0,75,0.00,,,0.01,0,Wunderground v.1.15,2013-03-28 01:20:00,
2013-03-27 21:40:00,38.4,32.5,23.19,SW,229,0.0,0.0,79,0.00,,,0.01,0,Wunderground v.1.15,2013-03-28 01:40:00,
2013-03-27 21:50:00,38.1,32.8,23.19,SW,229,0.0,0.0,81,0.00,,,0.01,0,Wunderground v.1.15,2013-03-28 01:50:00,
2013-03-27 22:10:00,37.8,33.4,23.19,SW,229,0.0,0.0,84,0.00,,,0.01,0,Wunderground v.1.15,2013-03-28 02:10:00,
2013-03-27 22:20:00,37.7,33.6,23.19,SW,229,0.0,0.0,85,0.00,,,0.01,0,Wunderground v.1.15,2013-03-28 02:20:00,
2013-03-27 22:31:00,37.8,34.0,23.19,SW,229,0.0,0.0,86,0.00,,,0.01,0,Wunderground v.1.15,2013-03-28 02:31:00,
2013-03-27 22:40:00,37.8,34.0,23.19,SW,229,0.0,0.0,86,0.00,,,0.02,0,Wunderground v.1.15,2013-03-28 02:40:00,
2013-03-27 22:50:00,37.8,34.0,23.19,SW,229,0.0,0.0,86,0.00,,,0.02,0,Wunderground v.1.15,2013-03-28 02:50:00,
2013-03-27 23:01:00,37.7,33.9,23.19,SW,229,0.0,0.0,86,0.00,,,0.02,0,Wunderground v.1.15,2013-03-28 03:01:00,
2013-03-27 23:10:00,37.7,33.9,23.19,SW,229,0.0,0.0,86,0.00,,,0.02,0,Wunderground v.1.15,2013-03-28 03:10:00,
2013-03-27 23:20:00,37.5,33.7,23.19,SW,229,0.0,0.0,86,0.00,,,0.02,0,Wunderground v.1.15,2013-03-28 03:20:00,
2013-03-27 23:40:00,37.4,33.6,23.19,SW,229,0.0,0.0,86,0.00,,,0.02,0,Wunderground v.1.15,2013-03-28 03:40:00,
2013-03-27 23:50:00,37.2,33.4,23.19,SW,229,0.0,0.0,86,0.00,,,0.02,0,Wunderground v.1.15,2013-03-28 03:50:00,